Time;durP1;ratioP1;P1;durP2;ratioP2;P2;SDS_P1;SDS_P2;PMS_P1;PMS_P2;Temp;Humidity;BMP_temperature;BMP_pressure;BME280_temperature;BME280_humidity;BME280_pressure;Samples;Min_cycle;Max_cycle;Signal;HPM_P1;HPM_P2
2024/03/01 00:01:12;;;;;;;29.77;17.73;;;6.10;99.90;;;;;;5093358;28;20204;-57
2024/03/01 00:03:40;;;;;;;27.60;17.03;;;6.10;99.90;;;;;;5093349;28;20203;-56
2024/03/01 00:06:07;;;;;;;28.30;16.70;;;6.10;99.90;;;;;;5093727;28;20224;-56
2024/03/01 00:08:33;;;;;;;26.83;16.80;;;6.10;99.90;;;;;;5093457;28;20264;-56
2024/03/01 00:11:00;;;;;;;29.07;16.20;;;6.10;99.90;;;;;;5093744;28;20204;-57
2024/03/01 00:13:27;;;;;;;26.33;15.70;;;6.10;99.90;;;;;;5093140;28;20254;-56
2024/03/01 00:15:55;;;;;;;25.13;16.27;;;6.10;99.90;;;;;;5093219;28;20236;-55
2024/03/01 00:18:21;;;;;;;27.27;16.37;;;6.10;99.90;;;;;;5093669;28;20204;-55
2024/03/01 00:20:50;;;;;;;28.47;17.27;;;6.00;99.90;;;;;;5093101;28;20230;-58
2024/03/01 00:23:17;;;;;;;27.07;17.53;;;6.00;99.90;;;;;;5093098;28;20211;-55
2024/03/01 00:25:45;;;;;;;33.07;18.17;;;5.90;99.90;;;;;;5093143;28;20232;-56
2024/03/01 00:28:12;;;;;;;28.07;18.27;;;5.90;99.90;;;;;;5093134;28;20257;-57
2024/03/01 00:30:38;;;;;;;29.93;17.93;;;5.80;99.90;;;;;;5092964;28;20646;-56
2024/03/01 00:33:05;;;;;;;29.53;18.00;;;5.90;99.90;;;;;;5092884;28;20204;-55
2024/03/01 00:35:32;;;;;;;30.97;19.20;;;5.90;99.90;;;;;;5092650;28;20311;-55
2024/03/01 00:38:00;;;;;;;31.63;19.00;;;5.80;99.90;;;;;;5093068;28;20208;-56
2024/03/01 00:40:27;;;;;;;27.10;17.70;;;5.70;99.90;;;;;;5092952;28;20208;-56
2024/03/01 00:42:53;;;;;;;34.43;19.90;;;5.70;99.90;;;;;;5092577;28;20210;-55
2024/03/01 00:45:20;;;;;;;28.87;19.03;;;5.70;99.90;;;;;;5092789;28;20204;-55
2024/03/01 00:47:49;;;;;;;30.60;18.30;;;5.70;99.90;;;;;;5092770;28;20211;-55
2024/03/01 00:50:16;;;;;;;28.57;18.50;;;5.60;99.90;;;;;;5093054;28;20265;-56
2024/03/01 00:52:43;;;;;;;31.87;19.00;;;5.70;99.90;;;;;;5092646;28;20204;-58
2024/03/01 00:55:11;;;;;;;30.03;18.93;;;5.80;99.90;;;;;;5092655;28;20228;-55
2024/03/01 00:57:38;;;;;;;29.83;18.77;;;5.80;99.90;;;;;;5092587;28;20211;-57
2024/03/01 01:00:06;;;;;;;31.13;18.70;;;5.90;99.90;;;;;;5092132;28;20216;-56
2024/03/01 01:02:33;;;;;;;28.57;18.30;;;5.90;99.90;;;;;;5092644;28;20285;-59
2024/03/01 01:05:00;;;;;;;30.33;18.93;;;5.90;99.90;;;;;;5093628;28;20211;-56
2024/03/01 01:07:27;;;;;;;29.73;18.43;;;5.80;99.90;;;;;;5094201;28;20235;-55
2024/03/01 01:09:54;;;;;;;34.33;19.40;;;5.80;99.90;;;;;;5092632;28;20243;-57
2024/03/01 01:12:22;;;;;;;28.33;18.43;;;5.80;99.90;;;;;;5092028;28;20216;-56
2024/03/01 01:14:48;;;;;;;27.70;18.43;;;5.80;99.90;;;;;;5092270;28;20228;-54
2024/03/01 01:17:15;;;;;;;35.63;19.70;;;5.80;99.90;;;;;;5092576;28;20231;-55
2024/03/01 01:19:41;;;;;;;30.87;18.57;;;5.70;99.90;;;;;;5092486;28;20211;-56
2024/03/01 01:22:08;;;;;;;31.77;19.70;;;5.70;99.90;;;;;;5092145;28;20580;-56
2024/03/01 01:24:35;;;;;;;31.63;20.07;;;5.60;99.90;;;;;;5092185;28;20673;-56
2024/03/01 01:27:02;;;;;;;38.03;20.83;;;5.60;99.90;;;;;;5092043;28;20224;-55
2024/03/01 01:29:30;;;;;;;31.37;19.57;;;5.40;99.90;;;;;;5092066;28;20750;-55
2024/03/01 01:31:57;;;;;;;31.43;19.47;;;5.30;99.90;;;;;;5092015;28;20691;-54
2024/03/01 01:34:23;;;;;;;33.27;20.57;;;5.30;99.90;;;;;;5092453;28;20231;-58
2024/03/01 01:36:50;;;;;;;33.53;20.23;;;5.20;99.90;;;;;;5092212;28;20226;-55
2024/03/01 01:39:17;;;;;;;34.40;20.90;;;5.20;99.90;;;;;;5092334;28;20216;-56
2024/03/01 01:41:43;;;;;;;32.33;20.33;;;5.10;99.90;;;;;;5092426;28;20204;-54
2024/03/01 01:44:10;;;;;;;33.40;21.30;;;5.10;99.90;;;;;;5092392;28;20253;-56
2024/03/01 01:46:38;;;;;;;39.03;22.87;;;5.10;99.90;;;;;;5092270;28;20568;-56
2024/03/01 01:49:05;;;;;;;36.57;21.90;;;5.20;99.90;;;;;;5092323;28;20662;-55
2024/03/01 01:51:34;;;;;;;36.33;21.73;;;5.10;99.90;;;;;;5092600;28;20203;-55
2024/03/01 01:54:01;;;;;;;39.33;22.90;;;5.20;99.90;;;;;;5092536;28;20204;-56
2024/03/01 01:56:28;;;;;;;36.07;21.93;;;5.20;99.90;;;;;;5092242;28;20725;-55
2024/03/01 01:58:54;;;;;;;34.60;21.07;;;5.20;99.90;;;;;;5092132;28;20211;-56
2024/03/01 02:01:21;;;;;;;33.63;20.97;;;5.20;99.90;;;;;;5092168;28;20568;-56
2024/03/01 02:03:51;;;;;;;37.30;22.47;;;5.30;99.90;;;;;;5092097;28;20519;-55
2024/03/01 02:06:20;;;;;;;33.93;21.27;;;5.30;99.90;;;;;;5092638;28;20633;-59
2024/03/01 02:08:46;;;;;;;36.93;23.00;;;5.40;99.90;;;;;;5092135;28;20294;-58
2024/03/01 02:11:13;;;;;;;38.00;22.37;;;5.50;99.90;;;;;;5091777;28;20200;-55
2024/03/01 02:13:40;;;;;;;35.97;21.53;;;5.50;99.90;;;;;;5094787;28;20638;-56
2024/03/01 02:16:07;;;;;;;36.93;21.60;;;5.50;99.90;;;;;;5096089;28;20231;-59
2024/03/01 02:18:34;;;;;;;35.03;21.37;;;5.50;99.90;;;;;;5096017;28;20261;-56
2024/03/01 02:21:06;;;;;;;36.73;21.73;;;5.50;99.90;;;;;;5096154;28;20232;-60
2024/03/01 02:23:34;;;;;;;34.40;21.73;;;5.50;99.90;;;;;;5095666;28;20208;-56
2024/03/01 02:26:01;;;;;;;33.90;21.17;;;5.50;99.90;;;;;;5095588;28;20286;-57
2024/03/01 02:28:28;;;;;;;36.33;20.83;;;5.50;99.90;;;;;;5095911;28;20215;-57
2024/03/01 02:30:55;;;;;;;35.37;21.93;;;5.40;99.90;;;;;;5096148;28;20212;-56
2024/03/01 02:33:21;;;;;;;34.53;20.93;;;5.40;99.90;;;;;;5096079;28;20242;-56
2024/03/01 02:35:48;;;;;;;37.40;21.67;;;5.40;99.90;;;;;;5103192;28;20235;-55
2024/03/01 02:38:15;;;;;;;36.43;21.80;;;5.40;99.90;;;;;;5102252;28;20204;-57
2024/03/01 02:40:44;;;;;;;35.77;20.13;;;5.50;99.90;;;;;;5100411;28;20233;-54
2024/03/01 02:43:10;;;;;;;35.83;21.83;;;5.60;99.90;;;;;;5099033;28;20208;-56
2024/03/01 02:45:37;;;;;;;32.53;21.10;;;5.60;99.90;;;;;;5097893;28;20638;-57
2024/03/01 02:48:05;;;;;;;33.70;21.23;;;5.70;99.90;;;;;;5097603;28;20654;-55
2024/03/01 02:50:32;;;;;;;35.43;21.60;;;5.80;99.90;;;;;;5095672;28;20204;-58
2024/03/01 02:52:58;;;;;;;34.73;21.20;;;5.80;99.90;;;;;;5094831;28;20254;-56
2024/03/01 02:55:25;;;;;;;33.93;21.43;;;5.90;99.90;;;;;;5094763;28;20235;-57
2024/03/01 02:57:55;;;;;;;36.57;21.53;;;6.00;99.90;;;;;;5095033;28;20207;-56
2024/03/01 03:00:23;;;;;;;34.57;20.50;;;6.10;99.90;;;;;;5094917;28;20638;-57
2024/03/01 03:02:51;;;;;;;29.53;19.87;;;6.10;99.90;;;;;;5094559;28;20200;-56
2024/03/01 03:05:18;;;;;;;32.83;20.40;;;6.00;99.90;;;;;;5094577;28;20207;-55
2024/03/01 03:07:46;;;;;;;34.57;19.97;;;6.10;99.90;;;;;;5094578;28;20208;-55
2024/03/01 03:10:14;;;;;;;35.00;20.80;;;6.20;99.90;;;;;;5094749;28;20210;-60
2024/03/01 03:12:40;;;;;;;35.60;21.00;;;6.30;99.90;;;;;;5094399;28;20208;-56
2024/03/01 03:15:09;;;;;;;32.73;19.43;;;6.30;99.90;;;;;;5094385;28;20269;-55
2024/03/01 03:17:36;;;;;;;36.03;21.47;;;6.40;99.90;;;;;;5094446;28;20626;-55
2024/03/01 03:20:09;;;;;;;33.13;20.10;;;6.40;99.90;;;;;;5094275;28;20204;-56
2024/03/01 03:22:37;;;;;;;33.10;20.53;;;6.50;99.90;;;;;;5094187;28;20215;-56
2024/03/01 03:25:05;;;;;;;34.47;20.40;;;6.60;99.90;;;;;;5093756;28;20725;-57
2024/03/01 03:27:32;;;;;;;34.87;20.87;;;6.80;99.90;;;;;;5094244;28;20211;-55
2024/03/01 03:29:58;;;;;;;36.67;21.03;;;6.80;99.90;;;;;;5093949;28;20822;-57
2024/03/01 03:32:26;;;;;;;32.83;21.17;;;6.80;99.90;;;;;;5093845;28;20208;-57
2024/03/01 03:34:53;;;;;;;33.43;20.27;;;6.90;99.90;;;;;;5093976;28;20211;-55
2024/03/01 03:37:20;;;;;;;34.47;21.30;;;6.80;99.90;;;;;;5093866;28;20633;-59
2024/03/01 03:39:47;;;;;;;34.70;21.53;;;6.70;99.90;;;;;;5094052;28;20291;-55
2024/03/01 03:42:14;;;;;;;35.30;21.47;;;6.60;99.90;;;;;;5093754;28;20211;-60
2024/03/01 03:44:40;;;;;;;32.47;20.77;;;6.60;99.90;;;;;;5072248;22;20710;-54
2024/03/01 03:47:07;;;;;;;37.70;21.60;;;6.60;99.90;;;;;;5033539;28;20256;-53
2024/03/01 03:49:35;;;;;;;34.47;20.80;;;6.60;99.90;;;;;;5033506;28;20214;-53
2024/03/01 03:52:02;;;;;;;33.10;20.77;;;6.60;99.90;;;;;;5033305;28;20206;-53
2024/03/01 03:54:29;;;;;;;31.07;20.50;;;6.60;99.90;;;;;;5033356;28;20233;-53
2024/03/01 03:56:55;;;;;;;40.30;22.70;;;6.60;99.90;;;;;;5033309;28;20225;-52
2024/03/01 03:59:22;;;;;;;32.93;21.20;;;6.70;99.90;;;;;;5033287;28;20209;-55
2024/03/01 04:01:49;;;;;;;33.40;20.67;;;6.70;99.90;;;;;;5033051;28;20252;-53
2024/03/01 04:04:16;;;;;;;33.00;21.37;;;6.80;99.90;;;;;;5033204;28;20265;-55
2024/03/01 04:06:44;;;;;;;36.90;22.73;;;6.90;99.90;;;;;;5033156;28;20582;-53
2024/03/01 04:09:12;;;;;;;34.43;20.77;;;6.90;99.90;;;;;;5033293;28;20237;-53
2024/03/01 04:11:40;;;;;;;36.40;21.77;;;6.90;99.90;;;;;;5032759;28;20210;-53
2024/03/01 04:14:09;;;;;;;34.00;20.87;;;6.90;99.90;;;;;;5033277;28;20223;-53
2024/03/01 04:16:36;;;;;;;33.57;21.40;;;6.90;99.90;;;;;;5032902;28;20261;-52
2024/03/01 04:19:02;;;;;;;34.57;21.43;;;6.90;99.90;;;;;;5033280;28;20210;-52
2024/03/01 04:21:30;;;;;;;37.27;22.07;;;6.90;99.90;;;;;;5032783;28;20210;-55
2024/03/01 04:23:58;;;;;;;31.87;20.60;;;6.90;99.90;;;;;;5032684;28;20433;-52
2024/03/01 04:26:25;;;;;;;35.00;21.87;;;6.90;99.90;;;;;;5032815;28;20214;-55
2024/03/01 04:28:51;;;;;;;35.67;21.77;;;7.00;99.90;;;;;;5032957;28;20217;-53
2024/03/01 04:31:18;;;;;;;33.83;22.20;;;7.00;99.90;;;;;;5032865;28;20210;-53
2024/03/01 04:33:46;;;;;;;34.57;22.43;;;7.00;99.90;;;;;;5032531;28;20225;-53
2024/03/01 04:36:13;;;;;;;32.87;21.13;;;7.10;99.90;;;;;;5032064;28;20222;-54
2024/03/01 04:38:40;;;;;;;32.27;21.93;;;7.20;99.90;;;;;;5032508;28;20236;-52
2024/03/01 04:41:15;;;;;;;34.13;21.40;;;7.20;99.90;;;;;;5032493;28;20293;-53
2024/03/01 04:43:42;;;;;;;36.27;22.63;;;7.30;99.90;;;;;;5032047;28;20327;-53
2024/03/01 04:46:08;;;;;;;33.83;21.97;;;7.30;99.90;;;;;;5032629;28;20207;-53
2024/03/01 04:48:35;;;;;;;35.60;21.77;;;7.40;99.90;;;;;;5032276;28;20746;-54
2024/03/01 04:51:08;;;;;;;34.87;22.00;;;7.40;99.90;;;;;;5033483;28;20248;-53
2024/03/01 04:53:35;;;;;;;37.57;23.30;;;7.40;99.90;;;;;;5032027;28;20280;-53
2024/03/01 04:56:01;;;;;;;37.37;22.43;;;7.30;99.90;;;;;;5032264;28;20707;-54
2024/03/01 04:58:29;;;;;;;33.90;21.83;;;7.20;99.90;;;;;;5032362;28;20206;-53
2024/03/01 05:00:57;;;;;;;35.60;22.13;;;7.20;99.90;;;;;;5032313;28;20309;-53
2024/03/01 05:03:28;;;;;;;37.30;21.63;;;7.20;99.90;;;;;;5032105;28;20202;-53
2024/03/01 05:05:55;;;;;;;37.93;21.90;;;7.20;99.90;;;;;;5032050;28;20198;-53
2024/03/01 05:08:22;;;;;;;35.53;21.70;;;7.20;99.90;;;;;;5031926;28;20723;-55
2024/03/01 05:10:49;;;;;;;39.43;22.67;;;7.20;99.90;;;;;;5032157;28;20206;-53
2024/03/01 05:13:16;;;;;;;32.63;21.73;;;7.20;99.90;;;;;;5031753;28;20293;-53
2024/03/01 05:15:44;;;;;;;33.27;20.80;;;7.20;99.90;;;;;;5032148;28;20309;-53
2024/03/01 05:18:11;;;;;;;38.77;22.67;;;7.20;99.90;;;;;;5031991;28;20233;-53
2024/03/01 05:20:38;;;;;;;32.47;21.77;;;7.20;99.90;;;;;;5031790;28;20260;-55
2024/03/01 05:23:05;;;;;;;35.27;22.80;;;7.30;99.90;;;;;;5031523;28;20272;-53
2024/03/01 05:25:31;;;;;;;36.40;22.57;;;7.30;99.90;;;;;;5031870;28;20223;-54
2024/03/01 05:27:58;;;;;;;38.40;23.13;;;7.20;99.90;;;;;;5031807;28;20667;-52
2024/03/01 05:30:26;;;;;;;35.50;21.80;;;7.10;99.90;;;;;;5031950;28;20241;-53
2024/03/01 05:32:54;;;;;;;36.77;22.17;;;7.00;99.90;;;;;;5031584;28;20202;-52
2024/03/01 05:35:22;;;;;;;33.30;21.70;;;6.90;99.90;;;;;;5031793;28;20226;-53
2024/03/01 05:37:49;;;;;;;36.70;22.30;;;6.90;99.90;;;;;;5023600;28;20203;-53
2024/03/01 05:40:17;;;;;;;33.37;22.37;;;6.90;99.90;;;;;;5032068;28;20202;-53
2024/03/01 05:42:44;;;;;;;44.77;24.50;;;6.80;99.90;;;;;;5031560;28;20206;-53
2024/03/01 05:45:12;;;;;;;34.53;23.30;;;6.60;99.90;;;;;;5032071;28;20349;-55
2024/03/01 05:47:39;;;;;;;38.70;23.00;;;6.50;99.90;;;;;;5034274;28;20663;-54
2024/03/01 05:50:09;;;;;;;35.30;22.33;;;6.50;99.90;;;;;;5035302;28;20450;-53
2024/03/01 05:52:38;;;;;;;36.87;24.07;;;6.50;99.90;;;;;;5036049;28;20272;-52
2024/03/01 05:55:08;;;;;;;39.30;23.80;;;6.40;99.90;;;;;;5035862;28;20225;-53
2024/03/01 05:57:37;;;;;;;38.43;23.00;;;6.50;99.90;;;;;;5035598;28;20222;-53
2024/03/01 06:00:09;;;;;;;39.17;23.17;;;6.60;99.90;;;;;;5035686;28;20206;-53
2024/03/01 06:02:36;;;;;;;37.73;24.67;;;6.70;99.90;;;;;;5035321;28;20209;-54
2024/03/01 06:05:03;;;;;;;38.53;24.03;;;6.80;99.90;;;;;;5035808;28;20225;-53
2024/03/01 06:07:31;;;;;;;36.73;23.57;;;6.90;99.90;;;;;;5035342;28;20592;-53
2024/03/01 06:09:57;;;;;;;38.20;25.10;;;7.00;99.90;;;;;;5035914;28;20642;-54
2024/03/01 06:12:24;;;;;;;40.43;23.03;;;7.00;99.90;;;;;;5035305;28;20213;-54
2024/03/01 06:14:51;;;;;;;36.57;23.27;;;7.10;99.90;;;;;;5035635;28;20229;-57
2024/03/01 06:17:17;;;;;;;38.43;23.13;;;7.10;99.90;;;;;;5035016;28;20275;-53
2024/03/01 06:19:44;;;;;;;37.80;23.07;;;7.20;99.90;;;;;;5035212;28;20308;-53
2024/03/01 06:22:11;;;;;;;37.23;24.03;;;7.10;99.90;;;;;;5035222;28;20221;-53
2024/03/01 06:24:39;;;;;;;31.03;21.20;;;7.20;99.90;;;;;;5035007;28;20284;-54
2024/03/01 06:27:05;;;;;;;35.20;22.23;;;7.00;99.90;;;;;;5035115;28;20282;-54
2024/03/01 06:29:32;;;;;;;36.53;22.97;;;7.10;99.90;;;;;;5034946;28;20206;-53
2024/03/01 06:32:00;;;;;;;37.10;22.37;;;7.10;99.90;;;;;;5034829;28;20202;-53
2024/03/01 06:34:26;;;;;;;36.47;22.53;;;7.10;99.90;;;;;;5035310;28;20233;-53
2024/03/01 06:36:53;;;;;;;36.10;22.40;;;7.20;99.90;;;;;;5035023;28;20225;-55
2024/03/01 06:39:20;;;;;;;36.53;22.70;;;7.30;99.90;;;;;;5035098;28;20210;-53
2024/03/01 06:41:48;;;;;;;36.63;22.17;;;7.40;99.90;;;;;;5034556;28;20206;-53
2024/03/01 06:44:20;;;;;;;38.60;23.57;;;7.50;99.90;;;;;;5034690;28;20234;-53
2024/03/01 06:46:47;;;;;;;37.23;22.97;;;7.60;99.90;;;;;;5035079;28;20198;-55
2024/03/01 06:49:13;;;;;;;39.07;23.50;;;7.70;99.90;;;;;;5034695;28;20672;-55
2024/03/01 06:51:40;;;;;;;34.43;22.67;;;7.70;99.90;;;;;;5035118;28;20260;-53
2024/03/01 06:54:07;;;;;;;35.77;21.73;;;7.80;99.90;;;;;;5034707;28;20280;-53
2024/03/01 06:56:33;;;;;;;32.80;21.63;;;7.90;99.90;;;;;;5034443;28;20502;-52
2024/03/01 06:59:01;;;;;;;33.50;21.57;;;8.00;99.90;;;;;;5033716;28;20199;-55
2024/03/01 07:01:28;;;;;;;37.00;23.17;;;8.10;99.90;;;;;;5034551;28;20213;-54
2024/03/01 07:03:55;;;;;;;35.67;22.90;;;8.10;99.90;;;;;;5034534;28;20229;-52
2024/03/01 07:06:22;;;;;;;36.80;23.07;;;8.20;99.90;;;;;;5035514;28;20214;-55
2024/03/01 07:08:49;;;;;;;46.50;27.40;;;8.30;99.90;;;;;;5034564;28;20206;-54
2024/03/01 07:11:15;;;;;;;40.33;25.93;;;8.30;99.90;;;;;;5034298;28;20236;-52
2024/03/01 07:13:42;;;;;;;36.47;24.30;;;8.30;99.90;;;;;;5034006;28;20229;-55
2024/03/01 07:16:10;;;;;;;39.40;24.07;;;8.30;99.90;;;;;;5033949;28;20233;-52
2024/03/01 07:18:37;;;;;;;36.87;22.23;;;8.40;99.90;;;;;;5034058;28;20213;-53
2024/03/01 07:21:05;;;;;;;36.40;21.50;;;8.40;99.90;;;;;;5034035;28;20234;-54
2024/03/01 07:23:31;;;;;;;36.30;22.67;;;8.40;99.90;;;;;;5033478;28;20309;-53
2024/03/01 07:25:58;;;;;;;35.10;22.07;;;8.50;99.90;;;;;;5033832;28;20210;-55
2024/03/01 07:28:25;;;;;;;34.30;21.83;;;8.50;99.90;;;;;;5034074;28;20262;-53
2024/03/01 07:30:51;;;;;;;32.90;20.83;;;8.60;99.90;;;;;;5033941;28;20256;-53
2024/03/01 07:33:20;;;;;;;35.60;21.57;;;8.80;99.90;;;;;;5033412;28;20234;-53
2024/03/01 07:35:47;;;;;;;50.53;22.57;;;8.90;99.90;;;;;;5033632;28;20315;-53
2024/03/01 07:38:14;;;;;;;36.67;21.40;;;9.00;99.90;;;;;;5033568;28;20222;-60
2024/03/01 07:40:41;;;;;;;31.97;21.07;;;9.20;99.90;;;;;;5033621;28;20213;-55
2024/03/01 07:43:08;;;;;;;31.70;21.20;;;9.30;99.90;;;;;;5033364;28;20210;-54
2024/03/01 07:45:34;;;;;;;34.23;20.80;;;9.50;99.90;;;;;;5033582;28;20632;-54
2024/03/01 07:48:02;;;;;;;34.93;22.00;;;9.60;99.90;;;;;;5033516;28;20202;-54
2024/03/01 07:50:30;;;;;;;33.83;21.73;;;9.80;99.90;;;;;;5033409;28;20217;-54
2024/03/01 07:52:57;;;;;;;30.53;21.67;;;9.90;99.90;;;;;;5033249;28;20276;-54
2024/03/01 07:55:23;;;;;;;31.10;21.13;;;10.00;99.90;;;;;;5033787;28;20317;-55
2024/03/01 07:57:50;;;;;;;29.70;20.43;;;10.10;99.90;;;;;;5033276;28;20218;-54
2024/03/01 08:00:17;;;;;;;31.37;20.70;;;10.20;99.90;;;;;;5033703;28;20418;-54
2024/03/01 08:02:44;;;;;;;27.47;19.73;;;10.40;99.90;;;;;;5033219;28;20651;-54
2024/03/01 08:05:11;;;;;;;28.90;19.43;;;10.50;99.90;;;;;;5033264;28;20756;-56
2024/03/01 08:07:39;;;;;;;33.93;20.23;;;10.70;99.90;;;;;;5033023;28;20206;-55
2024/03/01 08:10:10;;;;;;;35.00;20.07;;;10.90;99.90;;;;;;5032097;28;20206;-54
2024/03/01 08:12:36;;;;;;;29.43;19.50;;;11.00;99.90;;;;;;5032730;28;20202;-54
2024/03/01 08:15:08;;;;;;;32.10;20.83;;;11.10;99.90;;;;;;5032822;28;20719;-55
2024/03/01 08:17:35;;;;;;;31.90;19.97;;;11.20;99.90;;;;;;5033167;28;20222;-54
2024/03/01 08:20:11;;;;;;;30.87;20.50;;;11.40;99.90;;;;;;5032802;28;20260;-55
2024/03/01 08:22:39;;;;;;;32.23;19.53;;;11.40;99.90;;;;;;5032935;28;20259;-55
2024/03/01 08:25:09;;;;;;;32.87;19.73;;;11.60;99.90;;;;;;5032714;28;20604;-55
2024/03/01 08:27:36;;;;;;;28.13;18.80;;;11.70;99.90;;;;;;5032951;28;20202;-55
2024/03/01 08:30:06;;;;;;;33.43;19.80;;;11.90;99.90;;;;;;5032841;28;20202;-55
2024/03/01 08:32:42;;;;;;;32.73;20.57;;;11.90;99.90;;;;;;5032328;28;20202;-55
2024/03/01 08:35:14;;;;;;;28.33;20.03;;;12.00;99.90;;;;;;5032904;28;20257;-55
2024/03/01 08:37:42;;;;;;;26.43;19.27;;;12.00;99.90;;;;;;5032553;28;20226;-53
2024/03/01 08:40:37;;;;;;;30.13;19.47;;;12.10;99.90;;;;;;5032989;28;20293;-54
2024/03/01 08:43:04;;;;;;;28.93;19.37;;;12.10;99.90;;;;;;5025571;28;20699;-54
2024/03/01 08:45:42;;;;;;;30.20;19.20;;;12.10;99.90;;;;;;5032689;28;20288;-55
2024/03/01 08:48:16;;;;;;;27.63;19.40;;;12.00;99.90;;;;;;5032884;28;20624;-55
2024/03/01 08:50:49;;;;;;;32.83;19.70;;;12.10;99.90;;;;;;5032646;28;20233;-54
2024/03/01 08:53:55;;;;;;;27.30;19.40;;;12.10;99.90;;;;;;5032454;28;20217;-55
2024/03/01 08:56:24;;;;;;;32.30;18.97;;;12.00;99.90;;;;;;5019815;28;20216;-55
2024/03/01 08:58:51;;;;;;;25.63;17.30;;;12.00;99.90;;;;;;5032420;28;20210;-55
2024/03/01 09:01:43;;;;;;;28.90;19.50;;;12.00;99.90;;;;;;5032355;28;20253;-56
2024/03/01 09:04:13;;;;;;;27.40;19.00;;;12.00;99.90;;;;;;5026057;28;20234;-54
2024/03/01 09:06:41;;;;;;;29.37;18.83;;;11.90;99.90;;;;;;5032248;28;20297;-54
2024/03/01 09:09:19;;;;;;;26.90;18.93;;;11.70;99.90;;;;;;5032583;28;20293;-54
2024/03/01 09:11:45;;;;;;;31.03;17.47;;;11.50;99.90;;;;;;5032746;28;20206;-54
2024/03/01 09:14:21;;;;;;;29.60;18.07;;;11.40;99.90;;;;;;5033610;28;20650;-56
2024/03/01 09:16:48;;;;;;;26.83;17.77;;;11.30;99.90;;;;;;5033649;28;20225;-55
2024/03/01 09:19:20;;;;;;;26.73;18.20;;;11.20;99.90;;;;;;5034160;28;20290;-57
2024/03/01 09:21:47;;;;;;;25.90;17.53;;;11.40;99.90;;;;;;5033137;28;20206;-55
2024/03/01 09:24:17;;;;;;;26.40;17.87;;;11.60;99.90;;;;;;5033759;28;20228;-55
2024/03/01 09:26:46;;;;;;;28.83;19.27;;;11.90;99.90;;;;;;5032099;28;20297;-54
2024/03/01 09:29:35;;;;;;;29.10;18.47;;;12.10;99.90;;;;;;5031838;28;20566;-58
2024/03/01 09:32:04;;;;;;;24.37;17.27;;;12.30;99.90;;;;;;5024665;28;20206;-57
2024/03/01 09:34:35;;;;;;;23.77;17.37;;;12.40;99.90;;;;;;5031586;28;20253;-59
2024/03/01 09:37:04;;;;;;;27.27;18.87;;;12.40;99.90;;;;;;5031479;28;20268;-57
2024/03/01 09:39:33;;;;;;;29.50;18.53;;;12.40;99.90;;;;;;5031649;28;20285;-57
2024/03/01 09:42:28;;;;;;;29.33;19.40;;;12.50;99.90;;;;;;5031383;28;20210;-58
2024/03/01 09:45:39;;;;;;;23.70;18.30;;;12.30;99.90;;;;;;5031755;28;20225;-54
2024/03/01 09:48:15;;;;;;;24.40;17.67;;;12.00;99.90;;;;;;5025041;28;20669;-55
2024/03/01 09:50:53;;;;;;;25.53;18.03;;;11.80;99.90;;;;;;5031844;28;20585;-55
2024/03/01 09:53:30;;;;;;;25.80;17.47;;;11.80;99.90;;;;;;5031597;28;20210;-56
2024/03/01 09:56:07;;;;;;;26.57;18.07;;;12.10;99.90;;;;;;5023670;28;20683;-54
2024/03/01 09:58:45;;;;;;;26.90;19.07;;;12.30;99.90;;;;;;5031660;28;20229;-56
2024/03/01 10:01:18;;;;;;;25.23;18.03;;;12.20;99.90;;;;;;5031838;28;20217;-55
2024/03/01 10:03:55;;;;;;;27.30;18.43;;;12.10;99.90;;;;;;5031586;28;20233;-55
2024/03/01 10:06:49;;;;;;;25.77;17.93;;;12.00;99.90;;;;;;5032164;28;20216;-55
2024/03/01 10:09:25;;;;;;;25.43;17.07;;;12.20;99.90;;;;;;5026850;28;20260;-54
2024/03/01 10:12:11;;;;;;;25.00;16.87;;;12.20;99.90;;;;;;5031351;28;20260;-56
2024/03/01 10:14:49;;;;;;;26.60;18.73;;;12.30;99.90;;;;;;5031434;28;20321;-55
2024/03/01 10:17:26;;;;;;;25.03;17.23;;;12.70;99.90;;;;;;5031630;28;20276;-54
2024/03/01 10:20:15;;;;;;;27.67;17.57;;;13.00;99.90;;;;;;5031553;28;20234;-54
2024/03/01 10:23:00;;;;;;;26.00;16.40;;;13.30;99.90;;;;;;5031174;28;20276;-54
2024/03/01 10:25:49;;;;;;;26.80;17.77;;;13.60;99.90;;;;;;5031263;28;20233;-54
2024/03/01 10:28:39;;;;;;;26.20;17.00;;;13.80;99.90;;;;;;5025868;28;20214;-54
2024/03/01 10:31:16;;;;;;;19.73;13.60;;;14.00;99.90;;;;;;5024251;28;20198;-55
2024/03/01 10:33:52;;;;;;;19.37;13.73;;;14.10;99.90;;;;;;5032349;28;20264;-54
2024/03/01 10:36:24;;;;;;;18.60;12.97;;;14.20;99.90;;;;;;5035376;28;20210;-54
2024/03/01 10:39:00;;;;;;;20.23;12.67;;;14.30;99.90;;;;;;5034853;28;20743;-55
2024/03/01 10:41:40;;;;;;;14.20;10.53;;;14.30;99.90;;;;;;5035136;28;20212;-55
2024/03/01 10:44:15;;;;;;;11.33;9.03;;;14.40;99.90;;;;;;5019999;28;20244;-55
2024/03/01 10:46:51;;;;;;;15.83;11.23;;;14.50;99.90;;;;;;5034870;28;20206;-57
2024/03/01 10:49:26;;;;;;;10.90;8.93;;;14.60;99.90;;;;;;5034801;28;20728;-54
2024/03/01 10:52:00;;;;;;;13.93;8.43;;;14.60;99.90;;;;;;5034307;28;20213;-55
2024/03/01 10:54:31;;;;;;;13.00;8.60;;;14.60;99.90;;;;;;5034360;28;20235;-56
2024/03/01 10:56:58;;;;;;;11.20;8.70;;;14.60;99.90;;;;;;5034937;28;20206;-54
2024/03/01 10:59:33;;;;;;;15.70;8.83;;;14.50;99.90;;;;;;5034603;28;20296;-56
2024/03/01 11:02:05;;;;;;;13.37;7.97;;;14.40;99.90;;;;;;5026829;28;20213;-55
2024/03/01 11:04:38;;;;;;;10.63;8.03;;;14.30;99.90;;;;;;5034394;28;20230;-56
2024/03/01 11:07:19;;;;;;;12.13;8.00;;;14.30;99.90;;;;;;5027890;28;20206;-55
2024/03/01 11:10:03;;;;;;;9.47;8.03;;;14.30;99.90;;;;;;5034608;28;20694;-59
2024/03/01 11:12:36;;;;;;;11.20;8.30;;;14.30;99.90;;;;;;5034272;28;20209;-56
2024/03/01 11:15:11;;;;;;;11.77;8.30;;;14.20;99.90;;;;;;5027081;28;20222;-57
2024/03/01 11:17:40;;;;;;;10.93;8.13;;;14.10;99.90;;;;;;5034541;28;20244;-56
2024/03/01 11:20:14;;;;;;;10.60;8.03;;;14.10;99.90;;;;;;5032997;28;20210;-55
2024/03/01 11:22:47;;;;;;;14.07;7.70;;;14.10;99.90;;;;;;5034425;28;20285;-54
2024/03/01 11:25:15;;;;;;;9.57;7.30;;;14.20;99.90;;;;;;5034506;28;20320;-54
2024/03/01 11:27:49;;;;;;;11.83;7.40;;;14.20;99.90;;;;;;5034569;28;20587;-55
2024/03/01 11:30:23;;;;;;;10.67;7.30;;;14.20;99.90;;;;;;5033952;28;20203;-56
2024/03/01 11:32:55;;;;;;;10.20;7.10;;;14.30;99.90;;;;;;5033842;28;20210;-61
2024/03/01 11:35:29;;;;;;;10.23;7.30;;;14.40;99.90;;;;;;5033920;28;20233;-59
2024/03/01 11:38:02;;;;;;;9.23;6.90;;;14.50;99.90;;;;;;5033915;28;20218;-59
2024/03/01 11:40:39;;;;;;;11.50;7.90;;;14.60;99.90;;;;;;5033709;28;20749;-65
2024/03/01 11:43:17;;;;;;;8.63;6.27;;;14.60;99.90;;;;;;5026094;28;20206;-55
2024/03/01 11:46:12;;;;;;;10.93;7.47;;;14.40;99.90;;;;;;5034098;28;20226;-54
2024/03/01 11:48:49;;;;;;;7.97;6.00;;;14.00;99.90;;;;;;5034001;28;20214;-57
2024/03/01 11:51:25;;;;;;;11.00;6.80;;;14.10;99.90;;;;;;5034107;28;20256;-57
2024/03/01 11:54:18;;;;;;;11.93;7.63;;;14.40;99.90;;;;;;5033179;28;20275;-58
2024/03/01 11:57:04;;;;;;;9.63;7.37;;;14.60;99.90;;;;;;5006415;28;20202;-58
2024/03/01 12:00:09;;;;;;;10.63;6.87;;;14.90;99.90;;;;;;5033425;28;20229;-59
2024/03/01 12:02:59;;;;;;;9.53;6.47;;;15.30;99.90;;;;;;5030331;28;20235;-58
2024/03/01 12:05:39;;;;;;;8.55;6.05;;;15.50;99.90;;;;;;5033458;28;20230;-56
2024/03/01 12:08:24;;;;;;;8.17;6.30;;;15.60;99.90;;;;;;5025933;28;20194;-57
2024/03/01 12:11:06;;;;;;;9.07;5.87;;;15.60;99.90;;;;;;5032984;28;20265;-56
2024/03/01 12:13:41;;;;;;;7.97;5.70;;;15.60;99.90;;;;;;5032737;28;20253;-56
2024/03/01 12:16:14;;;;;;;8.17;5.63;;;15.70;99.90;;;;;;5026209;28;20206;-56
2024/03/01 12:18:49;;;;;;;7.82;5.88;;;15.80;99.90;;;;;;5032823;28;20226;-56
2024/03/01 12:21:26;;;;;;;6.80;4.85;;;15.90;99.90;;;;;;5032860;28;20707;-60
2024/03/01 12:24:08;;;;;;;9.10;5.70;;;15.90;99.90;;;;;;5032286;28;20229;-58
2024/03/01 12:26:52;;;;;;;7.20;6.15;;;16.00;99.90;;;;;;5033354;28;20578;-58
2024/03/01 12:29:31;;;;;;;7.90;5.57;;;16.10;99.90;;;;;;5027661;28;20205;-57
2024/03/01 12:32:10;;;;;;;6.72;5.15;;;16.10;99.90;;;;;;5032254;28;20607;-59
2024/03/01 12:34:54;;;;;;;13.88;9.25;;;16.20;99.90;;;;;;5032699;28;20225;-58
2024/03/01 12:37:32;;;;;;;11.77;8.80;;;16.30;99.90;;;;;;5032698;28;20217;-57
2024/03/01 12:40:16;;;;;;;9.32;5.47;;;16.50;99.90;;;;;;5032547;28;20285;-59
2024/03/01 12:43:07;;;;;;;6.90;4.60;;;16.80;99.90;;;;;;5032004;28;20292;-59
2024/03/01 12:45:48;;;;;;;9.73;4.78;;;17.20;99.90;;;;;;5030108;28;20210;-59
2024/03/01 12:48:26;;;;;;;7.70;5.25;;;17.50;99.90;;;;;;5026149;28;20324;-61
2024/03/01 12:51:08;;;;;;;8.80;4.80;;;17.60;99.90;;;;;;5032153;28;20206;-59
2024/03/01 12:53:58;;;;;;;5.53;4.22;;;17.60;99.90;;;;;;5031931;28;20610;-56